Share

Santa Ana, El Salvador

Nueva Ocotepeque (MHSC) Elev 2060 ft | 14.38 °N, 87.62 °W | Change Station

Current weather conditions updated 38 minutes ago

Partly Cloudy
Partly Cloudy
70 °F
Feels Like 70 °F
N
8
Wind Variable Wind from NW
Sunrise 5:41 AM
Sunset 6:12 PM
Moon Waning Gibbous

Today is forecast to be Warmer than yesterday.

Pressure 29.90 in
Visibility 6.2 miles
Clouds Few 5500 ft
Dew Point 68 °F
Humidity 94%
Rainfall 0.00 in
Snow Depth Not available.
UV 0 out of 16
Pollen Not available.
Air Quality Not available.
Flu Activity Not available.
METAR MHSC 200958Z AUTO 32007KT 9999 FEW055 21/20 A3002 RMK AO2 SLP124 T02090199 $

More Conditions Fewer Conditions

Pressure 29.90 in
Visibility 6.2 miles
Clouds Few 5500 ft
Dew Point 68 °F
Humidity 94%
Rainfall 0.00 in
Snow Depth Not available.
UV 0 out of 16
Pollen Not available.
Air Quality Not available.
Flu Activity Not available.
METAR MHSC 200958Z AUTO 32007KT 9999 FEW055 21/20 A3002 RMK AO2 SLP124 T02090199 $

More Conditions Fewer Conditions

10-Day Weather Forecast

Almanac

Astronomy

Apr. 20, 2014 Rise Set
Actual Time 5:41 AM CST 6:12 PM CST
Civil Twilight 5:20 AM CST 6:34 PM CST
Nautical Twilight 4:54 AM CST 6:59 PM CST
Astronomical Twilight 4:28 AM CST 7:25 PM CST
Moon 11:28 PM CST 10:20 AM CST
Length of Visible Light 13h 14m
Length of Day
12h 30m
Tomorrow will be 0m 44s longer.
Waning Gibbous, 71% of the Moon is Illuminated
Today
Waning Gibbous
Apr 22
Last Quarter
Apr 29
New
May 6
First Quarter
May 14
Full

Yesterday's Extremes

Country Highs Country Lows

Community

  • Easter Greetings
    Easter Greetings
  • Sunny day at the coast-Cape Arago Lighthouse
    Sunny day at the coast-Cape Arago Lighthouse
  • Cherry Blossoms
    Cherry Blossoms
  • White-Crowned Sparrow
    White-Crowned Sparrow
  • New Day
    New Day

WunderPhotos

Upload Photos

1,703,135 photos uploaded!

WunderBlogs® & News

Nearby

Snow Depth

Not available.

Coastal Water Temperatures

Place Temperature
No Stations Reporting

Earthquake Activity

City Distance Mag. Time & Date
No recent earthquake activity has been reported nearby.
Minimum magnitude displayed is 2.5.

Nearby Weather Stations

There are no personal weather stations in this area.

What do you think?

We're not finished. Please let us know what you like, what you don't like, and what you are still missing.